sensor_id;sensor_type;location;lat;lon;timestamp;pressure;altitude;pressure_sealevel;temperature;humidity
67109;BME280;54027;50.786;7.058;2024-03-08T00:01:52;101220.56;;;3.46;85.11
67109;BME280;54027;50.786;7.058;2024-03-08T00:04:18;101226.28;;;3.38;85.68
67109;BME280;54027;50.786;7.058;2024-03-08T00:06:43;101218.66;;;3.39;85.68
67109;BME280;54027;50.786;7.058;2024-03-08T00:09:11;101197.75;;;3.52;85.08
67109;BME280;54027;50.786;7.058;2024-03-08T00:11:37;101187.53;;;3.52;84.62
67109;BME280;54027;50.786;7.058;2024-03-08T00:14:02;101187.44;;;3.49;84.69
67109;BME280;54027;50.786;7.058;2024-03-08T00:16:32;101204.91;;;3.34;85.94
67109;BME280;54027;50.786;7.058;2024-03-08T00:18:57;101209.97;;;3.33;86.05
67109;BME280;54027;50.786;7.058;2024-03-08T00:21:22;101197.97;;;3.30;85.18
67109;BME280;54027;50.786;7.058;2024-03-08T00:23:48;101197.97;;;3.30;85.21
67109;BME280;54027;50.786;7.058;2024-03-08T00:26:13;101203.81;;;3.26;85.38
67109;BME280;54027;50.786;7.058;2024-03-08T00:28:38;101197.00;;;3.27;85.71
67109;BME280;54027;50.786;7.058;2024-03-08T00:31:04;101186.84;;;3.28;85.69
67109;BME280;54027;50.786;7.058;2024-03-08T00:33:29;101190.09;;;3.23;84.96
67109;BME280;54027;50.786;7.058;2024-03-08T00:35:54;101187.59;;;3.24;85.41
67109;BME280;54027;50.786;7.058;2024-03-08T00:38:20;101183.25;;;3.22;85.50
67109;BME280;54027;50.786;7.058;2024-03-08T00:40:45;101197.78;;;3.23;85.72
67109;BME280;54027;50.786;7.058;2024-03-08T00:43:11;101190.03;;;3.20;85.72
67109;BME280;54027;50.786;7.058;2024-03-08T00:45:36;101189.19;;;3.21;85.55
67109;BME280;54027;50.786;7.058;2024-03-08T00:48:03;101173.91;;;3.22;85.78
67109;BME280;54027;50.786;7.058;2024-03-08T00:50:28;101165.47;;;3.25;85.61
67109;BME280;54027;50.786;7.058;2024-03-08T00:52:54;101164.50;;;3.21;84.94
67109;BME280;54027;50.786;7.058;2024-03-08T00:55:19;101176.31;;;3.18;85.97
67109;BME280;54027;50.786;7.058;2024-03-08T00:57:45;101158.50;;;3.19;85.67
67109;BME280;54027;50.786;7.058;2024-03-08T01:00:11;101166.03;;;3.15;85.59
67109;BME280;54027;50.786;7.058;2024-03-08T01:02:38;101152.44;;;3.16;85.64
67109;BME280;54027;50.786;7.058;2024-03-08T01:05:04;101163.47;;;3.15;85.65
67109;BME280;54027;50.786;7.058;2024-03-08T01:07:33;101166.72;;;3.09;85.86
67109;BME280;54027;50.786;7.058;2024-03-08T01:09:58;101165.59;;;2.99;86.47
67109;BME280;54027;50.786;7.058;2024-03-08T01:12:24;101163.00;;;2.98;86.86
67109;BME280;54027;50.786;7.058;2024-03-08T01:14:49;101162.13;;;2.97;86.84
67109;BME280;54027;50.786;7.058;2024-03-08T01:17:15;101147.84;;;3.04;86.49
67109;BME280;54027;50.786;7.058;2024-03-08T01:19:40;101157.13;;;3.01;87.22
67109;BME280;54027;50.786;7.058;2024-03-08T01:22:05;101145.22;;;3.01;87.08
67109;BME280;54027;50.786;7.058;2024-03-08T01:24:31;101142.69;;;3.03;86.42
67109;BME280;54027;50.786;7.058;2024-03-08T01:26:56;101139.22;;;2.99;86.92
67109;BME280;54027;50.786;7.058;2024-03-08T01:29:21;101145.84;;;2.92;87.47
67109;BME280;54027;50.786;7.058;2024-03-08T01:31:47;101143.22;;;2.91;87.30
67109;BME280;54027;50.786;7.058;2024-03-08T01:34:13;101133.75;;;2.87;87.09
67109;BME280;54027;50.786;7.058;2024-03-08T01:36:38;101147.97;;;2.79;88.14
67109;BME280;54027;50.786;7.058;2024-03-08T01:39:03;101146.09;;;2.72;88.33
67109;BME280;54027;50.786;7.058;2024-03-08T01:41:33;101152.72;;;2.67;88.43
67109;BME280;54027;50.786;7.058;2024-03-08T01:43:59;101156.72;;;2.57;89.10
67109;BME280;54027;50.786;7.058;2024-03-08T01:46:24;101158.19;;;2.51;89.50
67109;BME280;54027;50.786;7.058;2024-03-08T01:48:53;101169.00;;;2.42;90.12
67109;BME280;54027;50.786;7.058;2024-03-08T01:51:19;101158.72;;;2.40;90.57
67109;BME280;54027;50.786;7.058;2024-03-08T01:53:46;101169.59;;;2.33;90.80
67109;BME280;54027;50.786;7.058;2024-03-08T01:56:12;101159.56;;;2.39;90.76
67109;BME280;54027;50.786;7.058;2024-03-08T01:58:40;101152.81;;;2.41;90.35
67109;BME280;54027;50.786;7.058;2024-03-08T02:01:07;101148.44;;;2.37;90.91
67109;BME280;54027;50.786;7.058;2024-03-08T02:03:34;101141.72;;;2.39;90.86
67109;BME280;54027;50.786;7.058;2024-03-08T02:05:59;101133.22;;;2.40;90.16
67109;BME280;54027;50.786;7.058;2024-03-08T02:08:25;101134.88;;;2.38;90.99
67109;BME280;54027;50.786;7.058;2024-03-08T02:10:50;101124.06;;;2.47;90.16
67109;BME280;54027;50.786;7.058;2024-03-08T02:13:16;101111.66;;;2.58;89.08
67109;BME280;54027;50.786;7.058;2024-03-08T02:15:55;101091.44;;;2.65;88.78
67109;BME280;54027;50.786;7.058;2024-03-08T02:18:21;101076.25;;;2.70;88.10
67109;BME280;54027;50.786;7.058;2024-03-08T02:20:54;101068.72;;;2.74;87.83
67109;BME280;54027;50.786;7.058;2024-03-08T02:23:20;101070.38;;;2.72;88.28
67109;BME280;54027;50.786;7.058;2024-03-08T02:25:46;101071.13;;;2.68;88.25
67109;BME280;54027;50.786;7.058;2024-03-08T02:28:12;101072.69;;;2.63;88.18
67109;BME280;54027;50.786;7.058;2024-03-08T02:30:38;101069.34;;;2.66;88.12
67109;BME280;54027;50.786;7.058;2024-03-08T02:33:04;101067.66;;;2.66;88.28
67109;BME280;54027;50.786;7.058;2024-03-08T02:35:30;101065.91;;;2.65;88.14
67109;BME280;54027;50.786;7.058;2024-03-08T02:37:55;101069.00;;;2.54;88.51
67109;BME280;54027;50.786;7.058;2024-03-08T02:40:20;101059.88;;;2.62;88.58
67109;BME280;54027;50.786;7.058;2024-03-08T02:42:47;101053.06;;;2.62;88.09
67109;BME280;54027;50.786;7.058;2024-03-08T02:45:13;101070.75;;;2.56;89.15
67109;BME280;54027;50.786;7.058;2024-03-08T02:47:38;101065.72;;;2.58;88.70
67109;BME280;54027;50.786;7.058;2024-03-08T02:50:05;101066.34;;;2.51;88.83
67109;BME280;54027;50.786;7.058;2024-03-08T02:52:35;101069.69;;;2.48;89.26
67109;BME280;54027;50.786;7.058;2024-03-08T02:55:04;101087.09;;;2.33;90.20
67109;BME280;54027;50.786;7.058;2024-03-08T02:57:33;101080.13;;;2.27;90.04
67109;BME280;54027;50.786;7.058;2024-03-08T02:59:58;101090.84;;;2.17;91.06
67109;BME280;54027;50.786;7.058;2024-03-08T03:02:25;101101.94;;;2.18;91.56
67109;BME280;54027;50.786;7.058;2024-03-08T03:04:52;101084.44;;;2.30;90.88
67109;BME280;54027;50.786;7.058;2024-03-08T03:07:17;101080.84;;;2.23;91.15
67109;BME280;54027;50.786;7.058;2024-03-08T03:09:42;101078.34;;;2.25;91.10
67109;BME280;54027;50.786;7.058;2024-03-08T03:12:08;101068.16;;;2.25;90.73
67109;BME280;54027;50.786;7.058;2024-03-08T03:14:35;101076.47;;;2.19;91.03
67109;BME280;54027;50.786;7.058;2024-03-08T03:17:04;101067.97;;;2.19;91.10
67109;BME280;54027;50.786;7.058;2024-03-08T03:19:30;101079.59;;;2.11;91.62
67109;BME280;54027;50.786;7.058;2024-03-08T03:21:55;101085.38;;;2.05;92.21
67109;BME280;54027;50.786;7.058;2024-03-08T03:24:20;101092.84;;;1.99;93.06
67109;BME280;54027;50.786;7.058;2024-03-08T03:26:46;101077.91;;;2.10;92.76
67109;BME280;54027;50.786;7.058;2024-03-08T03:29:13;101052.84;;;2.25;91.52
67109;BME280;54027;50.786;7.058;2024-03-08T03:31:39;101051.13;;;2.24;91.48
67109;BME280;54027;50.786;7.058;2024-03-08T03:34:05;101054.28;;;2.17;91.86
67109;BME280;54027;50.786;7.058;2024-03-08T03:36:34;101061.91;;;2.15;92.31
67109;BME280;54027;50.786;7.058;2024-03-08T03:39:00;101058.63;;;2.19;92.40
67109;BME280;54027;50.786;7.058;2024-03-08T03:41:44;101063.53;;;2.13;92.49
67109;BME280;54027;50.786;7.058;2024-03-08T03:44:11;101052.59;;;2.16;92.24
67109;BME280;54027;50.786;7.058;2024-03-08T03:46:36;101040.91;;;2.24;91.74
67109;BME280;54027;50.786;7.058;2024-03-08T03:49:02;101039.94;;;2.19;92.10
67109;BME280;54027;50.786;7.058;2024-03-08T03:51:29;101031.53;;;2.23;91.57
67109;BME280;54027;50.786;7.058;2024-03-08T03:53:54;101027.34;;;2.25;91.32
67109;BME280;54027;50.786;7.058;2024-03-08T03:56:26;101032.19;;;2.16;91.83
67109;BME280;54027;50.786;7.058;2024-03-08T03:58:52;101034.66;;;2.13;92.12
67109;BME280;54027;50.786;7.058;2024-03-08T04:01:17;101036.94;;;2.05;92.14
67109;BME280;54027;50.786;7.058;2024-03-08T04:03:42;101019.16;;;2.07;91.72
67109;BME280;54027;50.786;7.058;2024-03-08T04:06:10;101031.75;;;2.02;92.33
67109;BME280;54027;50.786;7.058;2024-03-08T04:08:36;101036.63;;;1.95;93.01
67109;BME280;54027;50.786;7.058;2024-03-08T04:11:01;101042.59;;;1.95;92.98
67109;BME280;54027;50.786;7.058;2024-03-08T04:13:27;101039.03;;;1.90;93.15
67109;BME280;54027;50.786;7.058;2024-03-08T04:15:52;101049.81;;;1.81;93.83
67109;BME280;54027;50.786;7.058;2024-03-08T04:18:18;101043.91;;;1.82;93.95
67109;BME280;54027;50.786;7.058;2024-03-08T04:20:44;101042.13;;;1.80;93.84
67109;BME280;54027;50.786;7.058;2024-03-08T04:23:09;101041.75;;;1.68;93.92
67109;BME280;54027;50.786;7.058;2024-03-08T04:25:35;101056.75;;;1.59;94.64
67109;BME280;54027;50.786;7.058;2024-03-08T04:28:00;101048.09;;;1.54;95.17
67109;BME280;54027;50.786;7.058;2024-03-08T04:30:26;101046.34;;;1.53;95.32
67109;BME280;54027;50.786;7.058;2024-03-08T04:32:53;101049.69;;;1.52;96.07
67109;BME280;54027;50.786;7.058;2024-03-08T04:35:19;101043.69;;;1.50;95.49
67109;BME280;54027;50.786;7.058;2024-03-08T04:37:45;101044.47;;;1.47;96.13
67109;BME280;54027;50.786;7.058;2024-03-08T04:40:11;101037.84;;;1.52;96.07
67109;BME280;54027;50.786;7.058;2024-03-08T04:42:37;101030.91;;;1.48;96.48
67109;BME280;54027;50.786;7.058;2024-03-08T04:45:04;101019.53;;;1.64;95.78
67109;BME280;54027;50.786;7.058;2024-03-08T04:47:30;101001.84;;;1.68;95.35
67109;BME280;54027;50.786;7.058;2024-03-08T04:49:56;100993.56;;;1.75;94.79
67109;BME280;54027;50.786;7.058;2024-03-08T04:52:22;100986.88;;;1.79;94.63
67109;BME280;54027;50.786;7.058;2024-03-08T04:54:47;100976.25;;;1.92;93.44
67109;BME280;54027;50.786;7.058;2024-03-08T04:57:13;100965.97;;;1.89;93.61
67109;BME280;54027;50.786;7.058;2024-03-08T04:59:38;100969.13;;;1.82;94.15
67109;BME280;54027;50.786;7.058;2024-03-08T05:02:04;100985.81;;;1.72;94.51
67109;BME280;54027;50.786;7.058;2024-03-08T05:04:29;100979.91;;;1.73;94.48
67109;BME280;54027;50.786;7.058;2024-03-08T05:06:55;100982.19;;;1.64;94.86
67109;BME280;54027;50.786;7.058;2024-03-08T05:09:20;100983.06;;;1.65;95.17
67109;BME280;54027;50.786;7.058;2024-03-08T05:11:46;100984.53;;;1.58;95.33
67109;BME280;54027;50.786;7.058;2024-03-08T05:14:13;100997.00;;;1.49;96.10
67109;BME280;54027;50.786;7.058;2024-03-08T05:16:45;100994.44;;;1.49;96.31
67109;BME280;54027;50.786;7.058;2024-03-08T05:19:18;100984.44;;;1.55;96.03
67109;BME280;54027;50.786;7.058;2024-03-08T05:21:44;100984.41;;;1.54;96.14
67109;BME280;54027;50.786;7.058;2024-03-08T05:24:10;100977.47;;;1.50;96.18
67109;BME280;54027;50.786;7.058;2024-03-08T05:26:36;100975.94;;;1.55;96.52
67109;BME280;54027;50.786;7.058;2024-03-08T05:29:02;100967.38;;;1.53;95.76
67109;BME280;54027;50.786;7.058;2024-03-08T05:31:28;100970.66;;;1.49;96.89
67109;BME280;54027;50.786;7.058;2024-03-08T05:33:55;100974.13;;;1.51;96.55
67109;BME280;54027;50.786;7.058;2024-03-08T05:36:20;100964.09;;;1.57;96.59
67109;BME280;54027;50.786;7.058;2024-03-08T05:38:46;100954.16;;;1.64;95.67
67109;BME280;54027;50.786;7.058;2024-03-08T05:41:12;100945.53;;;1.59;95.52
67109;BME280;54027;50.786;7.058;2024-03-08T05:43:37;100950.72;;;1.62;95.75
67109;BME280;54027;50.786;7.058;2024-03-08T05:46:04;100939.69;;;1.63;95.34
67109;BME280;54027;50.786;7.058;2024-03-08T05:48:32;100956.41;;;1.54;96.07
67109;BME280;54027;50.786;7.058;2024-03-08T05:50:58;100952.81;;;1.49;95.96
67109;BME280;54027;50.786;7.058;2024-03-08T05:53:23;100952.81;;;1.49;96.35
67109;BME280;54027;50.786;7.058;2024-03-08T05:55:48;100952.81;;;1.49;96.62
67109;BME280;54027;50.786;7.058;2024-03-08T05:58:15;100955.38;;;1.49;96.68
67109;BME280;54027;50.786;7.058;2024-03-08T06:00:40;100954.59;;;1.51;96.86
67109;BME280;54027;50.786;7.058;2024-03-08T06:03:05;100948.66;;;1.51;96.53
67109;BME280;54027;50.786;7.058;2024-03-08T06:05:31;100936.91;;;1.56;96.33
67109;BME280;54027;50.786;7.058;2024-03-08T06:07:56;100941.81;;;1.50;96.58
67109;BME280;54027;50.786;7.058;2024-03-08T06:10:22;100945.84;;;1.43;97.40
67109;BME280;54027;50.786;7.058;2024-03-08T06:12:47;100950.34;;;1.50;97.33
67109;BME280;54027;50.786;7.058;2024-03-08T06:15:12;100936.75;;;1.51;96.81
67109;BME280;54027;50.786;7.058;2024-03-08T06:17:40;100935.19;;;1.55;96.39
67109;BME280;54027;50.786;7.058;2024-03-08T06:20:06;100932.72;;;1.58;97.04
67109;BME280;54027;50.786;7.058;2024-03-08T06:22:38;100911.94;;;1.72;96.05
67109;BME280;54027;50.786;7.058;2024-03-08T06:25:13;100895.41;;;1.88;94.93
67109;BME280;54027;50.786;7.058;2024-03-08T06:27:42;100886.88;;;1.88;94.71
67109;BME280;54027;50.786;7.058;2024-03-08T06:30:08;100888.72;;;1.92;94.36
67109;BME280;54027;50.786;7.058;2024-03-08T06:32:35;100891.38;;;1.96;94.92
67109;BME280;54027;50.786;7.058;2024-03-08T06:35:02;100892.25;;;1.97;94.55
67109;BME280;54027;50.786;7.058;2024-03-08T06:37:28;100880.41;;;1.99;93.68
67109;BME280;54027;50.786;7.058;2024-03-08T06:39:53;100895.69;;;1.99;94.58
67109;BME280;54027;50.786;7.058;2024-03-08T06:42:20;100890.69;;;2.02;94.33
67109;BME280;54027;50.786;7.058;2024-03-08T06:44:45;100887.38;;;2.04;94.09
67109;BME280;54027;50.786;7.058;2024-03-08T06:47:15;100885.75;;;2.08;94.14
67109;BME280;54027;50.786;7.058;2024-03-08T06:49:44;100880.72;;;2.09;93.79
67109;BME280;54027;50.786;7.058;2024-03-08T06:52:10;100881.78;;;2.17;93.80
67109;BME280;54027;50.786;7.058;2024-03-08T06:54:36;100869.31;;;2.28;93.22
67109;BME280;54027;50.786;7.058;2024-03-08T06:57:03;100868.63;;;2.33;92.84
67109;BME280;54027;50.786;7.058;2024-03-08T06:59:29;100871.13;;;2.32;93.27
67109;BME280;54027;50.786;7.058;2024-03-08T07:01:54;100865.19;;;2.33;93.03
67109;BME280;54027;50.786;7.058;2024-03-08T07:04:19;100867.03;;;2.38;92.74
67109;BME280;54027;50.786;7.058;2024-03-08T07:06:47;100863.69;;;2.41;92.41
67109;BME280;54027;50.786;7.058;2024-03-08T07:09:15;100857.88;;;2.45;92.47
67109;BME280;54027;50.786;7.058;2024-03-08T07:11:43;100852.06;;;2.51;92.43
67109;BME280;54027;50.786;7.058;2024-03-08T07:14:09;100843.75;;;2.58;92.07
67109;BME280;54027;50.786;7.058;2024-03-08T07:16:34;100835.38;;;2.65;91.59
67109;BME280;54027;50.786;7.058;2024-03-08T07:19:04;100838.91;;;2.70;91.97
67109;BME280;54027;50.786;7.058;2024-03-08T07:21:30;100849.25;;;2.76;92.23
67109;BME280;54027;50.786;7.058;2024-03-08T07:23:56;100833.22;;;2.80;91.77
67109;BME280;54027;50.786;7.058;2024-03-08T07:26:24;100830.88;;;2.89;91.24
67109;BME280;54027;50.786;7.058;2024-03-08T07:28:50;100819.25;;;3.02;90.80
67109;BME280;54027;50.786;7.058;2024-03-08T07:31:15;100813.44;;;3.09;89.74
67109;BME280;54027;50.786;7.058;2024-03-08T07:34:07;100796.63;;;3.18;89.22
67109;BME280;54027;50.786;7.058;2024-03-08T07:36:36;100804.44;;;3.24;90.29
67109;BME280;54027;50.786;7.058;2024-03-08T07:39:01;100774.84;;;3.34;88.30
67109;BME280;54027;50.786;7.058;2024-03-08T07:41:27;100760.47;;;3.39;87.78
67109;BME280;54027;50.786;7.058;2024-03-08T07:43:54;100756.34;;;3.45;88.31
67109;BME280;54027;50.786;7.058;2024-03-08T07:46:19;100751.31;;;3.50;87.85
67109;BME280;54027;50.786;7.058;2024-03-08T07:48:45;100753.22;;;3.59;87.73
67109;BME280;54027;50.786;7.058;2024-03-08T07:51:11;100758.47;;;3.68;87.43
67109;BME280;54027;50.786;7.058;2024-03-08T07:53:37;100748.38;;;3.74;86.88
67109;BME280;54027;50.786;7.058;2024-03-08T07:56:04;100711.06;;;3.83;85.57
67109;BME280;54027;50.786;7.058;2024-03-08T07:58:30;100713.81;;;3.95;85.65
67109;BME280;54027;50.786;7.058;2024-03-08T08:00:55;100700.31;;;4.02;85.64
67109;BME280;54027;50.786;7.058;2024-03-08T08:03:21;100694.47;;;4.09;85.17
67109;BME280;54027;50.786;7.058;2024-03-08T08:05:47;100698.84;;;4.17;84.74
67109;BME280;54027;50.786;7.058;2024-03-08T08:08:14;100689.59;;;4.23;84.77
67109;BME280;54027;50.786;7.058;2024-03-08T08:10:40;100667.56;;;4.34;84.70
67109;BME280;54027;50.786;7.058;2024-03-08T08:13:05;100660.00;;;4.40;83.52
67109;BME280;54027;50.786;7.058;2024-03-08T08:15:30;100666.09;;;4.50;84.56
67109;BME280;54027;50.786;7.058;2024-03-08T08:17:56;100642.38;;;4.61;83.72
67109;BME280;54027;50.786;7.058;2024-03-08T08:20:21;100627.09;;;4.68;83.16
67109;BME280;54027;50.786;7.058;2024-03-08T08:22:48;100614.41;;;4.77;82.55
67109;BME280;54027;50.786;7.058;2024-03-08T08:25:13;100619.53;;;4.78;81.93
67109;BME280;54027;50.786;7.058;2024-03-08T08:27:41;100621.38;;;4.88;82.26
67109;BME280;54027;50.786;7.058;2024-03-08T08:30:08;100592.47;;;4.98;81.78
67109;BME280;54027;50.786;7.058;2024-03-08T08:32:34;100595.13;;;5.06;81.85
67109;BME280;54027;50.786;7.058;2024-03-08T08:35:01;100604.66;;;5.19;82.12
67109;BME280;54027;50.786;7.058;2024-03-08T08:37:27;100593.63;;;5.25;82.16
67109;BME280;54027;50.786;7.058;2024-03-08T08:39:53;100573.22;;;5.35;81.62
67109;BME280;54027;50.786;7.058;2024-03-08T08:42:19;100573.34;;;5.49;81.23
67109;BME280;54027;50.786;7.058;2024-03-08T08:44:44;100579.38;;;5.54;80.98
67109;BME280;54027;50.786;7.058;2024-03-08T08:47:11;100579.47;;;5.63;81.15
67109;BME280;54027;50.786;7.058;2024-03-08T08:49:36;100567.56;;;5.72;80.74
67109;BME280;54027;50.786;7.058;2024-03-08T08:52:02;100545.44;;;5.84;79.84
67109;BME280;54027;50.786;7.058;2024-03-08T08:54:28;100544.63;;;5.92;79.23
67109;BME280;54027;50.786;7.058;2024-03-08T08:56:53;100545.56;;;6.03;79.23
67109;BME280;54027;50.786;7.058;2024-03-08T08:59:19;100534.50;;;6.15;79.15
67109;BME280;54027;50.786;7.058;2024-03-08T09:01:47;100531.09;;;6.20;78.61
67109;BME280;54027;50.786;7.058;2024-03-08T09:04:13;100527.72;;;6.29;78.39
67109;BME280;54027;50.786;7.058;2024-03-08T09:06:39;100514.13;;;6.48;77.67
67109;BME280;54027;50.786;7.058;2024-03-08T09:09:06;100470.56;;;6.69;75.28
67109;BME280;54027;50.786;7.058;2024-03-08T09:11:34;100465.47;;;6.81;74.73
67109;BME280;54027;50.786;7.058;2024-03-08T09:14:00;100460.34;;;6.94;74.13
67109;BME280;54027;50.786;7.058;2024-03-08T09:16:27;100443.19;;;7.06;73.33
67109;BME280;54027;50.786;7.058;2024-03-08T09:18:52;100430.41;;;7.17;72.62
67109;BME280;54027;50.786;7.058;2024-03-08T09:21:17;100401.25;;;7.22;70.94
67109;BME280;54027;50.786;7.058;2024-03-08T09:23:43;100434.66;;;7.30;72.28
67109;BME280;54027;50.786;7.058;2024-03-08T09:26:10;100412.41;;;7.38;71.62
67109;BME280;54027;50.786;7.058;2024-03-08T09:28:38;100409.81;;;7.50;71.19
67109;BME280;54027;50.786;7.058;2024-03-08T09:31:03;100376.38;;;7.59;69.48
67109;BME280;54027;50.786;7.058;2024-03-08T09:33:30;100364.34;;;7.58;69.17
67109;BME280;54027;50.786;7.058;2024-03-08T09:35:56;100390.00;;;7.75;70.01
67109;BME280;54027;50.786;7.058;2024-03-08T09:38:23;100363.41;;;7.88;68.63
67109;BME280;54027;50.786;7.058;2024-03-08T09:40:50;100353.91;;;8.00;68.21
67109;BME280;54027;50.786;7.058;2024-03-08T09:43:16;100310.09;;;8.11;65.56
67109;BME280;54027;50.786;7.058;2024-03-08T09:45:45;100293.72;;;8.20;64.68
67109;BME280;54027;50.786;7.058;2024-03-08T09:48:12;100286.84;;;8.23;64.72
67109;BME280;54027;50.786;7.058;2024-03-08T09:50:39;100275.69;;;8.27;63.94
67109;BME280;54027;50.786;7.058;2024-03-08T09:53:04;100271.34;;;8.29;63.81
67109;BME280;54027;50.786;7.058;2024-03-08T09:55:35;100263.63;;;8.29;62.65
67109;BME280;54027;50.786;7.058;2024-03-08T09:58:02;100271.31;;;8.34;63.41
67109;BME280;54027;50.786;7.058;2024-03-08T10:00:42;100266.06;;;8.46;63.03
67109;BME280;54027;50.786;7.058;2024-03-08T10:03:08;100254.91;;;8.48;61.76
67109;BME280;54027;50.786;7.058;2024-03-08T10:05:34;100249.78;;;8.44;61.84
67109;BME280;54027;50.786;7.058;2024-03-08T10:07:59;100255.59;;;8.67;62.73
67109;BME280;54027;50.786;7.058;2024-03-08T10:10:25;100253.78;;;8.77;62.43
67109;BME280;54027;50.786;7.058;2024-03-08T10:12:51;100238.28;;;8.83;61.95
67109;BME280;54027;50.786;7.058;2024-03-08T10:15:17;100239.88;;;8.94;61.42
67109;BME280;54027;50.786;7.058;2024-03-08T10:17:42;100239.88;;;8.96;61.28
67109;BME280;54027;50.786;7.058;2024-03-08T10:20:18;100222.63;;;9.01;61.08
67109;BME280;54027;50.786;7.058;2024-03-08T10:22:44;100230.38;;;9.01;61.23
67109;BME280;54027;50.786;7.058;2024-03-08T10:25:12;100221.81;;;8.97;60.04
67109;BME280;54027;50.786;7.058;2024-03-08T10:27:39;100200.28;;;9.01;59.20
67109;BME280;54027;50.786;7.058;2024-03-08T10:30:10;100217.28;;;9.18;60.54
67109;BME280;54027;50.786;7.058;2024-03-08T10:32:35;100221.56;;;9.19;60.80
67109;BME280;54027;50.786;7.058;2024-03-08T10:35:01;100197.44;;;9.24;59.68
67109;BME280;54027;50.786;7.058;2024-03-08T10:37:27;100186.38;;;9.14;59.95
67109;BME280;54027;50.786;7.058;2024-03-08T10:40:03;100202.44;;;9.35;60.05
67109;BME280;54027;50.786;7.058;2024-03-08T10:42:40;100161.88;;;9.49;57.88
67109;BME280;54027;50.786;7.058;2024-03-08T10:45:31;100169.81;;;9.34;58.49
67109;BME280;54027;50.786;7.058;2024-03-08T10:50:50;100180.66;;;9.60;58.72
67109;BME280;54027;50.786;7.058;2024-03-08T10:53:18;100178.91;;;9.63;59.16
67109;BME280;54027;50.786;7.058;2024-03-08T10:55:46;100177.00;;;9.76;58.73
67109;BME280;54027;50.786;7.058;2024-03-08T10:58:12;100190.81;;;9.72;59.19
67109;BME280;54027;50.786;7.058;2024-03-08T11:00:38;100167.53;;;9.75;58.07
67109;BME280;54027;50.786;7.058;2024-03-08T11:03:04;100161.53;;;9.75;58.72
67109;BME280;54027;50.786;7.058;2024-03-08T11:05:37;100199.06;;;9.97;60.28
67109;BME280;54027;50.786;7.058;2024-03-08T11:10:55;100115.50;;;10.02;55.65
67109;BME280;54027;50.786;7.058;2024-03-08T11:13:35;100154.38;;;9.92;57.79
67109;BME280;54027;50.786;7.058;2024-03-08T11:16:11;100138.06;;;9.88;57.30
67109;BME280;54027;50.786;7.058;2024-03-08T11:18:37;100146.81;;;9.80;58.13
67109;BME280;54027;50.786;7.058;2024-03-08T11:21:08;100162.19;;;9.87;58.67
67109;BME280;54027;50.786;7.058;2024-03-08T11:23:40;100126.16;;;9.80;57.40
67109;BME280;54027;50.786;7.058;2024-03-08T11:26:23;100125.28;;;9.82;57.17
67109;BME280;54027;50.786;7.058;2024-03-08T11:28:49;100127.94;;;9.79;57.38
67109;BME280;54027;50.786;7.058;2024-03-08T11:33:46;100142.03;;;10.09;57.88
67109;BME280;54027;50.786;7.058;2024-03-08T11:36:21;100124.69;;;10.18;57.36
67109;BME280;54027;50.786;7.058;2024-03-08T11:38:48;100108.16;;;10.27;56.66
67109;BME280;54027;50.786;7.058;2024-03-08T11:41:21;100107.28;;;10.30;57.31
67109;BME280;54027;50.786;7.058;2024-03-08T11:43:47;100123.66;;;10.29;56.34
67109;BME280;54027;50.786;7.058;2024-03-08T11:46:16;100110.47;;;10.42;57.30
67109;BME280;54027;50.786;7.058;2024-03-08T11:48:42;100081.50;;;10.27;56.16
67109;BME280;54027;50.786;7.058;2024-03-08T11:51:09;100094.38;;;10.28;56.58
67109;BME280;54027;50.786;7.058;2024-03-08T11:53:37;100075.34;;;10.34;55.69
67109;BME280;54027;50.786;7.058;2024-03-08T11:56:11;100081.31;;;10.36;55.85
67109;BME280;54027;50.786;7.058;2024-03-08T11:58:37;100064.00;;;10.41;55.64
67109;BME280;54027;50.786;7.058;2024-03-08T12:01:07;100055.47;;;10.36;55.19
67109;BME280;54027;50.786;7.058;2024-03-08T12:03:37;100074.03;;;10.57;55.61
67109;BME280;54027;50.786;7.058;2024-03-08T12:06:03;100061.03;;;10.62;55.63
67109;BME280;54027;50.786;7.058;2024-03-08T12:08:32;100053.09;;;10.71;55.27
67109;BME280;54027;50.786;7.058;2024-03-08T12:10:57;100058.72;;;10.90;55.88
67109;BME280;54027;50.786;7.058;2024-03-08T12:13:31;100022.13;;;11.08;53.39
67109;BME280;54027;50.786;7.058;2024-03-08T12:16:00;99972.88;;;11.12;51.70
67109;BME280;54027;50.786;7.058;2024-03-08T12:18:33;99995.31;;;11.12;52.34
67109;BME280;54027;50.786;7.058;2024-03-08T12:23:34;99979.38;;;11.30;51.60
67109;BME280;54027;50.786;7.058;2024-03-08T12:26:17;99995.03;;;11.24;51.67
67109;BME280;54027;50.786;7.058;2024-03-08T12:28:44;99974.06;;;11.34;50.46
67109;BME280;54027;50.786;7.058;2024-03-08T12:31:14;99961.97;;;11.37;51.22
67109;BME280;54027;50.786;7.058;2024-03-08T12:33:52;99952.63;;;11.65;50.39
67109;BME280;54027;50.786;7.058;2024-03-08T12:36:19;99951.00;;;11.61;50.16
67109;BME280;54027;50.786;7.058;2024-03-08T12:38:46;99969.19;;;11.59;50.82
67109;BME280;54027;50.786;7.058;2024-03-08T12:41:19;99936.22;;;11.66;49.34
67109;BME280;54027;50.786;7.058;2024-03-08T12:43:48;99938.28;;;11.53;49.30
67109;BME280;54027;50.786;7.058;2024-03-08T12:46:17;99932.72;;;11.67;49.91
67109;BME280;54027;50.786;7.058;2024-03-08T12:48:46;99933.56;;;11.69;49.91
67109;BME280;54027;50.786;7.058;2024-03-08T12:51:14;99925.78;;;11.69;48.85
67109;BME280;54027;50.786;7.058;2024-03-08T12:53:42;99937.91;;;11.67;49.74
67109;BME280;54027;50.786;7.058;2024-03-08T12:56:11;99929.47;;;11.60;49.82
67109;BME280;54027;50.786;7.058;2024-03-08T12:58:37;99926.88;;;11.60;49.28
67109;BME280;54027;50.786;7.058;2024-03-08T13:01:03;99949.66;;;11.80;50.74
67109;BME280;54027;50.786;7.058;2024-03-08T13:03:35;99916.53;;;11.91;50.09
67109;BME280;54027;50.786;7.058;2024-03-08T13:06:02;99939.78;;;11.94;50.96
67109;BME280;54027;50.786;7.058;2024-03-08T13:08:28;99889.06;;;11.87;48.80
67109;BME280;54027;50.786;7.058;2024-03-08T13:10:56;99900.22;;;11.89;49.01